Laporte, CO (80535)

6:04 PM MDT on September 03, 2015 (GMT -0600)
KBB Honey Farm | | Change Station
CLOSE
Current Station
Personal Weather Station
Location: Laporte, CO
Elevation: 5130 ft
Nearby Weather Stations

Elev 5130 ft 40.64 °N, 105.14 °W | Updated 4 minutes ago

Mostly Cloudy
Mostly Cloudy
71.4 °F
Feels Like 77 °F
N
15.9
Wind Variable Wind from NW
Gusts 22.8 mph

Today
High -- | Low -- °F
--% Chance of Precip.
Yesterday
High -- | Low -- °F
Precip. -- in
6:29 AM 7:29 PM
Waning Gibbous, 65% visible
Pressure 30.00 in
Visibility 10.0 miles
Clouds Few 9500 ft
Heat Index 77 °F
Dew Point 52 °F
Humidity 51%
Rainfall 0.02 in
Snow Depth Not available.
UV 1 out of 12
Pollen 9.50 out of 12
Air Quality Not available.
Flu Activity Not available.
METAR KFNL 032355Z AUTO 29008KT 10SM FEW095 23/11 A3000 RMK AO1 10290 20190 403000150 52010
Pressure 30.00 in
Visibility 10.0 miles
Clouds Few 9500 ft
Heat Index 77 °F
Dew Point 52 °F
Humidity 51%
Rainfall 0.02 in
Snow Depth Not available.
UV 1 out of 12
Pollen 9.50 out of 12
Air Quality Not available.
Flu Activity Not available.
METAR KFNL 032355Z AUTO 29008KT 10SM FEW095 23/11 A3000 RMK AO1 10290 20190 403000150 52010

10-Day Weather Forecast

×

Almanac

Astronomy

Sep. 03, 2015 Rise Set
Actual Time
Civil Twilight
Nautical Twilight
Astronomical Twilight
Moon
Length of Visible Light
Length of Day
Tomorrow will be .
, % of the Moon is Illuminated

Today's Extremes

State Highs State Lows

Community

WunderPhotos

Upload Photos

1,852,069 photos uploaded!

WunderBlogs® & News

Nearby

Air Quality

  Air Quality AQ Index Pollutant
Not available.

Snow Depth

Station Depth Elevation

Earthquake Activity

City Distance Mag. Time & Date
Minimum magnitude displayed is 2.5.

Coastal Water Temperatures

Place Temperature

Stations

Nearby Weather Stations

Station Location Temp. Windchill Dew Point Humidity Wind Precip. Elev Updated Type